createdAt,value
2022-12-23T00:02:03.357Z,46.95
2022-12-23T00:04:33.540Z,35.38
2022-12-23T00:07:03.575Z,24.45
2022-12-23T00:09:33.850Z,6.38
2022-12-23T00:12:18.920Z,7.20
2022-12-23T00:15:01.373Z,6.38
2022-12-23T00:17:31.343Z,9.90
2022-12-23T00:20:01.446Z,9.05
2022-12-23T00:22:43.565Z,7.70
2022-12-23T00:25:14.778Z,6.80
2022-12-23T00:28:01.481Z,7.05
2022-12-23T00:30:31.851Z,6.38
2022-12-23T00:33:01.852Z,8.90
2022-12-23T00:35:33.937Z,20.00
2022-12-23T00:38:03.923Z,11.07
2022-12-23T00:40:46.250Z,7.85
2022-12-23T00:43:18.861Z,8.52
2022-12-23T00:45:48.954Z,7.60
2022-12-23T00:48:31.442Z,6.47
2022-12-23T00:51:01.477Z,4.60
2022-12-23T00:53:31.583Z,8.25
2022-12-23T00:56:01.639Z,4.05
2022-12-23T00:58:34.748Z,6.18
2022-12-23T01:01:17.213Z,8.35
2022-12-23T01:03:59.542Z,4.60
2022-12-23T01:06:29.560Z,9.25
2022-12-23T01:08:59.582Z,11.55
2022-12-23T01:11:29.662Z,7.03
2022-12-23T01:14:02.255Z,7.72
2022-12-23T01:16:32.286Z,6.28
2022-12-23T01:19:02.334Z,6.63
2022-12-23T01:21:32.344Z,4.45
2022-12-23T01:24:02.370Z,5.55
2022-12-23T01:26:32.370Z,5.50
2022-12-23T01:29:05.098Z,6.65
2022-12-23T01:31:35.161Z,4.95
2022-12-23T01:34:05.283Z,7.10
2022-12-23T01:36:35.305Z,7.85
2022-12-23T01:39:05.320Z,5.65
2022-12-23T01:41:49.011Z,6.22
2022-12-23T01:44:53.368Z,5.22
2022-12-23T01:47:27.249Z,4.82
2022-12-23T01:50:00.887Z,5.60
2022-12-23T01:52:31.025Z,4.72
2022-12-23T01:55:01.231Z,4.30
2022-12-23T01:57:31.368Z,3.60
2022-12-23T02:00:16.302Z,5.40
2022-12-23T02:03:00.145Z,4.00
2022-12-23T02:05:30.539Z,5.88
2022-12-23T02:08:13.200Z,5.50
2022-12-23T02:10:55.140Z,5.65
2022-12-23T02:13:29.686Z,5.72
2022-12-23T02:16:19.131Z,9.48
2022-12-23T02:19:04.449Z,5.38
2022-12-23T02:21:47.505Z,9.98
2022-12-23T02:24:48.966Z,8.15
2022-12-23T02:27:22.182Z,9.43
2022-12-23T02:30:28.176Z,7.70
2022-12-23T02:33:24.075Z,5.60
2022-12-23T02:36:00.744Z,6.05
2022-12-23T02:38:33.347Z,6.03
2022-12-23T02:41:21.796Z,7.68
2022-12-23T02:43:54.657Z,5.87
2022-12-23T02:46:28.879Z,6.63
2022-12-23T02:49:06.328Z,3.65
2022-12-23T02:51:39.005Z,4.63
2022-12-23T02:54:11.862Z,5.35
2022-12-23T02:56:45.540Z,6.13
2022-12-23T02:59:18.459Z,4.97
2022-12-23T03:01:49.123Z,4.72
2022-12-23T03:04:21.783Z,4.53
2022-12-23T03:06:54.448Z,6.80
2022-12-23T03:09:28.607Z,4.18
2022-12-23T03:12:02.657Z,4.15
2022-12-23T03:14:51.779Z,2.30
2022-12-23T03:17:31.835Z,5.20
2022-12-23T03:20:08.544Z,3.72
2022-12-23T03:22:42.036Z,6.95
2022-12-23T03:25:15.546Z,3.67
2022-12-23T03:27:50.542Z,5.00
2022-12-23T03:30:22.037Z,4.85
2022-12-23T03:32:55.867Z,4.22
2022-12-23T03:35:32.676Z,3.45
2022-12-23T03:38:04.535Z,4.05
2022-12-23T03:40:39.230Z,6.03
2022-12-23T03:43:12.451Z,5.88
2022-12-23T03:45:46.553Z,3.35
2022-12-23T03:48:21.471Z,4.05
2022-12-23T03:50:57.342Z,9.20
2022-12-23T03:53:30.424Z,3.60
2022-12-23T03:56:04.469Z,4.75
2022-12-23T03:58:38.593Z,4.93
2022-12-23T04:01:13.992Z,5.25
2022-12-23T04:03:49.515Z,3.88
2022-12-23T04:06:23.342Z,4.20
2022-12-23T04:08:53.846Z,2.22
2022-12-23T04:11:23.838Z,3.45
2022-12-23T04:13:53.880Z,2.65
2022-12-23T04:16:23.910Z,3.45
2022-12-23T04:18:53.914Z,3.20
2022-12-23T04:21:26.461Z,4.03
2022-12-23T04:23:56.493Z,2.90
2022-12-23T04:26:26.429Z,2.28
2022-12-23T04:28:56.450Z,2.15
2022-12-23T04:31:26.510Z,4.15
2022-12-23T04:33:56.624Z,4.07
2022-12-23T04:36:29.170Z,4.85
2022-12-23T04:38:59.227Z,3.97
2022-12-23T04:41:29.208Z,4.97
2022-12-23T04:43:59.184Z,8.13
2022-12-23T04:46:29.177Z,4.05
2022-12-23T04:48:59.247Z,2.85
2022-12-23T04:51:31.867Z,2.78
2022-12-23T04:54:01.953Z,3.15
2022-12-23T04:56:31.862Z,2.40
2022-12-23T04:59:02.492Z,4.15
2022-12-23T05:01:32.814Z,3.58
2022-12-23T05:04:02.989Z,2.35
2022-12-23T05:06:35.594Z,8.48
2022-12-23T05:09:05.807Z,5.20
2022-12-23T05:11:41.902Z,5.03
2022-12-23T05:14:12.869Z,6.47
2022-12-23T05:16:42.951Z,7.10
2022-12-23T05:19:13.577Z,6.40
2022-12-23T05:21:46.211Z,2.78
2022-12-23T05:24:16.206Z,6.55
2022-12-23T05:26:47.942Z,8.98
2022-12-23T05:29:18.597Z,6.85
2022-12-23T05:31:48.749Z,5.10
2022-12-23T05:34:18.855Z,6.30
2022-12-23T05:36:51.670Z,10.57
2022-12-23T05:39:21.676Z,10.68
2022-12-23T05:41:51.659Z,4.32
2022-12-23T05:44:21.583Z,3.42
2022-12-23T05:46:51.626Z,4.38
2022-12-23T05:49:22.650Z,1.05
2022-12-23T05:51:55.491Z,3.60
2022-12-23T05:54:25.510Z,6.72
2022-12-23T05:56:55.685Z,12.68
2022-12-23T05:59:30.728Z,7.00
2022-12-23T06:02:01.597Z,3.70
2022-12-23T06:04:31.653Z,6.65
2022-12-23T06:07:04.228Z,7.50
2022-12-23T06:09:34.374Z,11.48
2022-12-23T06:12:04.372Z,5.28
2022-12-23T06:14:34.367Z,9.85
2022-12-23T06:17:04.470Z,4.30
2022-12-23T06:19:34.493Z,9.93
2022-12-23T06:22:07.101Z,12.63
2022-12-23T06:24:37.178Z,8.32
2022-12-23T06:27:07.291Z,15.27
2022-12-23T06:29:37.306Z,3.22
2022-12-23T06:32:08.044Z,4.03
2022-12-23T06:34:38.035Z,14.20
2022-12-23T06:37:10.748Z,9.02
2022-12-23T06:39:40.686Z,13.82
2022-12-23T06:42:10.733Z,18.25
2022-12-23T06:44:40.711Z,10.07
2022-12-23T06:47:11.244Z,17.45
2022-12-23T06:49:41.364Z,5.78
2022-12-23T06:52:13.971Z,19.75
2022-12-23T06:54:43.995Z,5.45
2022-12-23T06:57:14.010Z,14.95
2022-12-23T06:59:43.949Z,32.40
2022-12-23T07:02:14.091Z,11.45
2022-12-23T07:04:44.210Z,26.08
2022-12-23T07:07:16.802Z,16.40
2022-12-23T07:09:46.819Z,6.55
2022-12-23T07:12:16.789Z,8.45
2022-12-23T07:14:46.736Z,36.05
2022-12-23T07:17:16.847Z,7.57
2022-12-23T07:19:46.881Z,9.60
2022-12-23T07:22:19.584Z,5.68
2022-12-23T07:24:49.679Z,8.38
2022-12-23T07:27:19.836Z,10.30
2022-12-23T07:29:49.812Z,15.82
2022-12-23T07:32:19.855Z,7.68
2022-12-23T07:34:49.851Z,7.85
2022-12-23T07:37:22.472Z,4.13
2022-12-23T07:39:52.510Z,6.03
2022-12-23T07:42:44.137Z,16.80
2022-12-23T07:45:13.711Z,15.13
2022-12-23T07:47:43.681Z,13.38
2022-12-23T07:50:14.598Z,13.65
2022-12-23T07:52:47.216Z,6.70
2022-12-23T07:55:17.699Z,6.28
2022-12-23T07:57:51.014Z,3.28
2022-12-23T08:00:22.211Z,6.57
2022-12-23T08:02:52.369Z,7.40
2022-12-23T08:05:22.632Z,8.43
2022-12-23T08:07:55.322Z,6.72
2022-12-23T08:10:25.399Z,10.45
2022-12-23T08:12:55.679Z,4.97
2022-12-23T08:15:25.608Z,10.25
2022-12-23T08:17:55.740Z,5.43
2022-12-23T08:20:25.827Z,6.15
2022-12-23T08:22:58.834Z,4.90
2022-12-23T08:25:28.894Z,2.97
2022-12-23T08:27:58.866Z,4.43
2022-12-23T08:30:28.945Z,8.35
2022-12-23T08:32:58.985Z,5.38
2022-12-23T08:35:28.940Z,5.63
2022-12-23T08:38:01.479Z,19.88
2022-12-23T08:40:31.546Z,22.75
2022-12-23T08:43:01.769Z,10.77
2022-12-23T08:45:31.763Z,11.68
2022-12-23T08:48:01.839Z,9.40
2022-12-23T08:50:31.830Z,6.78
2022-12-23T08:53:04.428Z,11.27
2022-12-23T08:55:34.575Z,2.92
2022-12-23T08:58:04.915Z,3.92
2022-12-23T09:00:34.973Z,4.20
2022-12-23T09:03:05.060Z,2.75
2022-12-23T09:05:36.184Z,5.60
2022-12-23T09:08:09.138Z,16.13
2022-12-23T09:10:44.346Z,4.25
2022-12-23T09:13:22.297Z,1.33
2022-12-23T09:15:56.635Z,3.03
2022-12-23T09:18:26.742Z,13.82
2022-12-23T09:21:01.359Z,7.97
2022-12-23T09:23:34.734Z,7.63
2022-12-23T09:26:04.676Z,2.00
2022-12-23T09:28:34.701Z,36.88
2022-12-23T09:31:10.457Z,6.93
2022-12-23T09:33:40.550Z,0.30
2022-12-23T09:36:11.143Z,0.80
2022-12-23T09:38:43.824Z,4.20
2022-12-23T09:41:25.201Z,9.63
2022-12-23T09:44:02.830Z,11.25
2022-12-23T09:46:35.500Z,0.77
2022-12-23T09:49:07.339Z,2.75
2022-12-23T09:51:37.314Z,0.30
2022-12-23T09:54:17.448Z,1.00
2022-12-23T09:56:51.347Z,0.88
2022-12-23T09:59:30.527Z,7.65
2022-12-23T10:02:06.576Z,3.05
2022-12-23T10:04:40.916Z,5.80
2022-12-23T10:07:31.894Z,2.05
2022-12-23T10:10:10.479Z,2.58
2022-12-23T10:12:43.143Z,5.50
2022-12-23T10:15:23.436Z,4.15
2022-12-23T10:17:56.152Z,8.00
2022-12-23T10:20:37.354Z,5.18
2022-12-23T10:23:09.287Z,39.55
2022-12-23T10:25:46.811Z,42.65
2022-12-23T10:28:16.754Z,19.08
2022-12-23T10:33:45.782Z,31.17
2022-12-23T10:36:19.079Z,10.35
2022-12-23T10:38:58.217Z,25.60
2022-12-23T10:41:40.811Z,18.77
2022-12-23T10:44:24.946Z,13.68
2022-12-23T10:47:02.488Z,34.53
2022-12-23T10:49:40.899Z,40.30
2022-12-23T10:52:15.246Z,17.33
2022-12-23T10:54:45.686Z,6.47
2022-12-23T10:57:19.995Z,8.00
2022-12-23T10:59:50.128Z,30.23
2022-12-23T11:02:37.598Z,21.33
2022-12-23T11:05:14.942Z,17.40
2022-12-23T11:07:46.785Z,34.80
2022-12-23T11:10:20.717Z,19.88
2022-12-23T11:12:54.978Z,24.33
2022-12-23T11:15:31.233Z,10.02
2022-12-23T11:18:03.115Z,13.40
2022-12-23T11:20:33.389Z,21.90
2022-12-23T11:23:05.025Z,27.38
2022-12-23T11:25:37.824Z,34.38
2022-12-23T11:28:16.644Z,12.65
2022-12-23T11:30:55.945Z,17.13
2022-12-23T11:33:29.645Z,12.80
2022-12-23T11:36:08.373Z,9.23
2022-12-23T11:38:39.521Z,5.25
2022-12-23T11:41:09.535Z,5.88
2022-12-23T11:43:42.715Z,18.13
2022-12-23T11:46:28.721Z,6.20
2022-12-23T11:49:16.991Z,13.73
2022-12-23T11:51:47.589Z,13.98
2022-12-23T11:54:23.593Z,17.85
2022-12-23T11:56:54.682Z,23.13
2022-12-23T11:59:39.240Z,13.70
2022-12-23T12:02:16.633Z,16.95
2022-12-23T12:04:46.823Z,18.83
2022-12-23T12:07:17.639Z,25.23
2022-12-23T12:09:47.700Z,15.95
2022-12-23T12:12:21.168Z,24.08
2022-12-23T12:14:55.835Z,13.45
2022-12-23T12:17:29.672Z,21.52
2022-12-23T12:20:07.689Z,20.77
2022-12-23T12:22:42.267Z,22.98
2022-12-23T12:25:24.240Z,25.55
2022-12-23T12:27:57.434Z,31.15
2022-12-23T12:30:34.819Z,23.42
2022-12-23T12:33:10.178Z,41.97
2022-12-23T12:35:45.218Z,21.65
2022-12-23T12:38:21.373Z,28.83
2022-12-23T12:40:54.820Z,29.77
2022-12-23T12:43:30.313Z,52.40
2022-12-23T12:46:11.908Z,33.42
2022-12-23T12:48:50.586Z,30.50
2022-12-23T12:51:27.070Z,16.45
2022-12-23T12:54:06.008Z,14.93
2022-12-23T12:59:08.343Z,19.92
2022-12-23T13:01:52.778Z,32.53
2022-12-23T13:04:47.959Z,19.48
2022-12-23T13:07:24.650Z,13.65
2022-12-23T13:10:02.832Z,14.68
2022-12-23T13:12:42.901Z,10.98
2022-12-23T13:15:19.506Z,7.10
2022-12-23T13:18:03.900Z,2.70
2022-12-23T13:20:38.284Z,9.25
2022-12-23T13:23:41.787Z,6.93
2022-12-23T13:26:08.153Z,2.40
2022-12-23T13:28:43.901Z,17.88
2022-12-23T13:31:19.000Z,11.88
2022-12-23T13:33:56.697Z,12.35
2022-12-23T13:36:42.201Z,3.90
2022-12-23T13:39:31.845Z,3.33
2022-12-23T13:42:06.069Z,2.35
2022-12-23T13:44:37.474Z,5.55
2022-12-23T13:47:13.443Z,12.40
2022-12-23T13:49:59.438Z,28.63
2022-12-23T13:52:38.691Z,11.07
2022-12-23T13:57:51.532Z,38.33
2022-12-23T14:00:28.978Z,9.65
2022-12-23T14:03:22.415Z,22.25
2022-12-23T14:05:56.262Z,27.17
2022-12-23T14:08:30.120Z,40.08
2022-12-23T14:11:02.847Z,45.15
2022-12-23T14:13:43.904Z,21.45
2022-12-23T14:16:22.142Z,37.65
2022-12-23T14:19:24.798Z,25.98
2022-12-23T14:22:07.612Z,14.27
2022-12-23T14:24:58.143Z,18.48
2022-12-23T14:27:45.383Z,24.70
2022-12-23T14:30:18.415Z,16.23
2022-12-23T14:32:50.849Z,24.27
2022-12-23T14:35:24.507Z,89.28
2022-12-23T14:38:26.919Z,25.95
2022-12-23T14:41:30.351Z,22.42
2022-12-23T14:44:02.905Z,28.42
2022-12-23T14:47:00.481Z,58.40
2022-12-23T14:49:45.794Z,44.40
2022-12-23T14:52:50.858Z,48.20
2022-12-23T14:55:45.297Z,33.25
2022-12-23T14:58:31.272Z,28.38
2022-12-23T15:01:05.177Z,22.45
2022-12-23T15:03:37.858Z,41.42
2022-12-23T15:06:09.915Z,45.60
2022-12-23T15:08:42.162Z,25.35
2022-12-23T15:11:20.736Z,26.73
2022-12-23T15:13:54.654Z,33.67
2022-12-23T15:16:32.552Z,38.75
2022-12-23T15:19:05.138Z,23.40
2022-12-23T15:21:36.694Z,34.97
2022-12-23T15:24:06.984Z,16.70
2022-12-23T15:26:37.142Z,46.13
2022-12-23T15:29:10.426Z,82.93
2022-12-23T15:31:45.633Z,79.80
2022-12-23T15:34:21.738Z,50.72
2022-12-23T15:36:54.657Z,93.80
2022-12-23T15:39:34.827Z,149.40
2022-12-23T15:42:05.222Z,227.23
2022-12-23T15:44:42.256Z,44.55
2022-12-23T15:47:41.886Z,27.77
2022-12-23T15:50:16.022Z,49.15
2022-12-23T15:52:48.082Z,113.60
2022-12-23T15:55:23.847Z,176.07
2022-12-23T15:57:54.590Z,124.43
2022-12-23T16:00:30.411Z,46.38
2022-12-23T16:03:02.815Z,39.03
2022-12-23T16:05:36.181Z,57.70
2022-12-23T16:08:13.574Z,29.23
2022-12-23T16:10:44.493Z,26.23
2022-12-23T16:13:20.058Z,22.75
2022-12-23T16:15:52.716Z,35.45
2022-12-23T16:18:28.695Z,18.77
2022-12-23T16:20:59.650Z,15.10
2022-12-23T16:23:32.501Z,13.32
2022-12-23T16:26:03.891Z,18.38
2022-12-23T16:28:40.053Z,31.10
2022-12-23T16:31:18.424Z,34.53
2022-12-23T16:33:52.402Z,26.08
2022-12-23T16:36:25.096Z,26.52
2022-12-23T16:39:02.811Z,32.53
2022-12-23T16:41:32.781Z,29.23
2022-12-23T16:44:03.078Z,27.02
2022-12-23T16:46:39.247Z,64.32
2022-12-23T16:49:11.213Z,94.13
2022-12-23T16:51:42.356Z,65.80
2022-12-23T16:54:16.647Z,39.92
2022-12-23T16:56:47.487Z,73.82
2022-12-23T16:59:17.704Z,73.13
2022-12-23T17:01:51.513Z,50.88
2022-12-23T17:04:21.813Z,28.15
2022-12-23T17:06:51.766Z,36.90
2022-12-23T17:09:22.899Z,40.35
2022-12-23T17:11:56.442Z,35.22
2022-12-23T17:14:28.202Z,30.33
2022-12-23T17:17:03.191Z,24.50
2022-12-23T17:19:34.084Z,15.00
2022-12-23T17:22:05.400Z,43.03
2022-12-23T17:24:35.439Z,28.90
2022-12-23T17:27:05.439Z,29.75
2022-12-23T17:29:35.490Z,22.08
2022-12-23T17:32:08.556Z,17.90
2022-12-23T17:34:38.551Z,25.38
2022-12-23T17:37:16.462Z,17.58
2022-12-23T17:39:47.157Z,23.30
2022-12-23T17:42:25.242Z,29.60
2022-12-23T17:44:56.071Z,32.15
2022-12-23T17:47:30.981Z,28.55
2022-12-23T17:50:00.972Z,36.15
2022-12-23T17:52:30.989Z,49.65
2022-12-23T17:55:00.989Z,30.90
2022-12-23T17:57:31.056Z,22.55
2022-12-23T18:00:00.961Z,9.30
2022-12-23T18:02:35.897Z,11.05
2022-12-23T18:05:21.566Z,34.45
2022-12-23T18:07:51.696Z,25.73
2022-12-23T18:10:23.268Z,12.95
2022-12-23T18:12:55.460Z,21.25
2022-12-23T18:15:29.492Z,23.30
2022-12-23T18:18:02.133Z,17.55
2022-12-23T18:20:32.158Z,14.82
2022-12-23T18:23:02.677Z,27.08
2022-12-23T18:25:32.678Z,25.35
2022-12-23T18:28:02.643Z,29.98
2022-12-23T18:30:32.996Z,14.00
2022-12-23T18:33:05.660Z,18.33
2022-12-23T18:35:38.468Z,37.13
2022-12-23T18:38:09.302Z,30.38
2022-12-23T18:40:40.182Z,37.45
2022-12-23T18:43:13.052Z,9.77
2022-12-23T18:45:49.149Z,11.38
2022-12-23T18:50:54.719Z,11.18
2022-12-23T18:53:26.319Z,15.52
2022-12-23T18:55:56.611Z,15.88
2022-12-23T18:58:27.179Z,11.13
2022-12-23T19:00:57.326Z,11.68
2022-12-23T19:03:34.246Z,13.57
2022-12-23T19:06:09.543Z,8.88
2022-12-23T19:08:40.361Z,9.98
2022-12-23T19:11:14.311Z,6.53
2022-12-23T19:13:44.382Z,5.82
2022-12-23T19:16:16.106Z,10.43
2022-12-23T19:18:49.209Z,11.68
2022-12-23T19:21:20.441Z,9.75
2022-12-23T19:23:50.571Z,11.05
2022-12-23T19:26:20.860Z,7.32
2022-12-23T19:28:51.019Z,9.80
2022-12-23T19:31:23.221Z,16.85
2022-12-23T19:33:55.943Z,25.40
2022-12-23T19:36:26.256Z,13.88
2022-12-23T19:38:56.292Z,10.13
2022-12-23T19:41:26.344Z,24.98
2022-12-23T19:43:56.376Z,6.68
2022-12-23T19:46:26.388Z,6.50
2022-12-23T19:48:58.956Z,3.50
2022-12-23T19:51:28.999Z,15.40
2022-12-23T19:53:58.947Z,7.22
2022-12-23T19:56:30.572Z,19.65
2022-12-23T19:59:00.572Z,6.68
2022-12-23T20:01:30.765Z,8.98
2022-12-23T20:04:03.360Z,20.25
2022-12-23T20:06:35.568Z,18.00
2022-12-23T20:09:06.817Z,11.13
2022-12-23T20:11:38.262Z,12.95
2022-12-23T20:14:08.821Z,23.92
2022-12-23T20:16:39.747Z,77.55
2022-12-23T20:19:12.525Z,82.80
2022-12-23T20:21:42.637Z,80.85
2022-12-23T20:24:12.693Z,23.02
2022-12-23T20:26:42.940Z,12.45
2022-12-23T20:29:12.966Z,8.77
2022-12-23T20:31:43.600Z,5.53
2022-12-23T20:34:18.234Z,6.53
2022-12-23T20:36:48.366Z,5.15
2022-12-23T20:39:18.550Z,24.88
2022-12-23T20:41:48.500Z,51.22
2022-12-23T20:44:36.144Z,44.53
2022-12-23T20:47:07.339Z,35.92
2022-12-23T20:49:40.061Z,26.33
2022-12-23T20:52:10.044Z,25.88
2022-12-23T20:54:40.062Z,73.70
2022-12-23T20:57:10.099Z,69.15
2022-12-23T20:59:40.015Z,51.67
2022-12-23T21:02:10.118Z,14.45
2022-12-23T21:04:42.781Z,14.93
2022-12-23T21:07:12.895Z,13.38
2022-12-23T21:09:42.783Z,10.38
2022-12-23T21:12:12.814Z,14.63
2022-12-23T21:14:42.835Z,10.23
2022-12-23T21:17:12.780Z,6.50
2022-12-23T21:19:45.426Z,5.15
2022-12-23T21:22:15.463Z,5.50
2022-12-23T21:24:45.505Z,11.40
2022-12-23T21:27:15.491Z,18.23
2022-12-23T21:29:45.601Z,10.43
2022-12-23T21:32:16.136Z,16.88
2022-12-23T21:34:48.883Z,19.17
2022-12-23T21:37:20.288Z,11.90
2022-12-23T21:39:50.338Z,12.98
2022-12-23T21:42:20.310Z,23.95
2022-12-23T21:44:50.449Z,24.65
2022-12-23T21:47:20.480Z,27.77
2022-12-23T21:49:53.047Z,19.55
2022-12-23T21:52:23.154Z,15.50
2022-12-23T21:54:53.240Z,30.15
2022-12-23T21:57:23.244Z,17.75
2022-12-23T21:59:53.276Z,29.20
2022-12-23T22:02:24.064Z,18.85
2022-12-23T22:04:56.753Z,15.05
2022-12-23T22:07:26.747Z,22.35
2022-12-23T22:09:56.795Z,14.60
2022-12-23T22:12:26.785Z,14.27
2022-12-23T22:14:56.782Z,18.08
2022-12-23T22:17:26.783Z,13.32
2022-12-23T22:19:59.414Z,7.38
2022-12-23T22:22:29.426Z,5.47
2022-12-23T22:24:59.457Z,7.13
2022-12-23T22:27:29.387Z,6.63
2022-12-23T22:29:59.494Z,3.30
2022-12-23T22:32:29.472Z,6.63
2022-12-23T22:35:02.240Z,11.13
2022-12-23T22:37:32.264Z,8.98
2022-12-23T22:40:02.328Z,3.95
2022-12-23T22:42:32.431Z,2.78
2022-12-23T22:45:02.432Z,8.40
2022-12-23T22:47:32.473Z,21.70
2022-12-23T22:50:05.062Z,20.13
2022-12-23T22:52:35.054Z,10.88
2022-12-23T22:55:05.217Z,6.40
2022-12-23T22:57:35.656Z,5.50
2022-12-23T23:00:11.936Z,15.02
2022-12-23T23:02:42.639Z,12.25
2022-12-23T23:05:15.326Z,39.00
2022-12-23T23:07:45.335Z,60.92
2022-12-23T23:10:15.431Z,33.72
2022-12-23T23:12:47.535Z,14.02
2022-12-23T23:15:17.632Z,10.98
2022-12-23T23:17:47.542Z,9.27
2022-12-23T23:20:20.495Z,8.10
2022-12-23T23:22:50.549Z,10.65
2022-12-23T23:25:20.687Z,13.57
2022-12-23T23:27:50.629Z,9.38
2022-12-23T23:30:20.842Z,6.65
2022-12-23T23:32:50.872Z,11.10
2022-12-23T23:35:23.570Z,8.00
2022-12-23T23:37:53.663Z,7.72
2022-12-23T23:40:24.024Z,8.48
2022-12-23T23:42:54.055Z,3.60
2022-12-23T23:45:24.088Z,5.05
2022-12-23T23:47:54.083Z,6.63
2022-12-23T23:50:26.678Z,6.13
2022-12-23T23:52:56.613Z,6.05
2022-12-23T23:55:26.695Z,2.90
2022-12-23T23:57:56.676Z,2.75
